Terminal Aerodrome Forecast
Issued by NWS

Home | Current Version | Previous Version | Text Only | Print | Product List | Glossary On
Versions: 1 2 3 4 5 6 7 8 9 10 11 12 13 14 15 16 17 18 19
054
FTUS45 KTFX 120542
TAFHVR
TAF
KHVR 120542Z 1206/1306 VRB05KT P6SM BKN120
     FM121400 08011KT P6SM SCT020 BKN040
     FM121600 11011KT 3SM BR OVC015 PROB30 1219/1222 1 1/2SM -RASN
      OVC015
     FM122200 12011KT P6SM OVC040=

USA.gov is the U.S. government's official web portal to all federal, state and local government web resources and services.